createdAt,value
2023-04-30T00:01:58.910Z,11.38
2023-04-30T00:04:28.031Z,11.38
2023-04-30T00:06:56.574Z,11.37
2023-04-30T00:09:24.480Z,11.37
2023-04-30T00:11:52.563Z,11.37
2023-04-30T00:14:20.911Z,11.36
2023-04-30T00:16:49.090Z,11.34
2023-04-30T00:19:17.216Z,11.33
2023-04-30T00:21:45.148Z,11.33
2023-04-30T00:24:13.059Z,11.36
2023-04-30T00:26:42.774Z,11.40
2023-04-30T00:29:11.198Z,11.42
2023-04-30T00:31:39.589Z,11.45
2023-04-30T00:34:07.702Z,11.48
2023-04-30T00:39:33.637Z,11.52
2023-04-30T00:42:02.857Z,11.54
2023-04-30T00:44:30.897Z,11.55
2023-04-30T00:46:58.853Z,11.56
2023-04-30T00:49:26.960Z,11.57
2023-04-30T00:51:55.045Z,11.57
2023-04-30T00:54:24.426Z,11.56
2023-04-30T00:56:52.822Z,11.53
2023-04-30T00:59:21.293Z,11.51
2023-04-30T01:01:49.930Z,11.49
2023-04-30T01:04:18.459Z,11.48
2023-04-30T01:06:46.748Z,11.47
2023-04-30T01:09:14.971Z,11.45
2023-04-30T01:11:55.079Z,11.44
2023-04-30T01:14:50.774Z,11.42
2023-04-30T01:17:41.940Z,11.40
2023-04-30T01:20:11.451Z,11.39
2023-04-30T01:22:48.588Z,11.37
2023-04-30T01:25:38.058Z,11.34
2023-04-30T01:28:16.898Z,11.32
2023-04-30T01:30:45.727Z,11.31
2023-04-30T01:36:19.425Z,11.29
2023-04-30T01:39:10.177Z,11.28
2023-04-30T01:41:56.677Z,11.26
2023-04-30T01:44:29.793Z,11.23
2023-04-30T01:47:19.185Z,11.22
2023-04-30T01:50:11.405Z,11.20
2023-04-30T01:52:52.727Z,11.20
2023-04-30T01:55:52.641Z,11.21
2023-04-30T01:58:23.821Z,11.20
2023-04-30T02:00:52.225Z,11.21
2023-04-30T02:03:20.506Z,11.20
2023-04-30T02:05:48.896Z,11.21
2023-04-30T02:08:17.528Z,11.21
2023-04-30T02:10:45.691Z,11.22
2023-04-30T02:13:13.618Z,11.22
2023-04-30T02:15:41.680Z,11.23
2023-04-30T02:18:09.693Z,11.24
2023-04-30T02:20:38.570Z,11.26
2023-04-30T02:23:09.862Z,11.28
2023-04-30T02:25:38.706Z,11.31
2023-04-30T02:28:06.672Z,11.34
2023-04-30T02:30:34.504Z,11.37
2023-04-30T02:33:03.697Z,11.40
2023-04-30T02:35:31.732Z,11.43
2023-04-30T02:37:59.789Z,11.44
2023-04-30T02:40:28.524Z,11.43
2023-04-30T02:42:56.923Z,11.42
2023-04-30T02:45:25.053Z,11.40
2023-04-30T02:47:53.145Z,11.37
2023-04-30T02:50:21.547Z,11.34
2023-04-30T02:52:49.825Z,11.31
2023-04-30T02:55:17.819Z,11.29
2023-04-30T02:57:45.729Z,11.27
2023-04-30T03:00:14.675Z,11.25
2023-04-30T03:02:43.754Z,11.24
2023-04-30T03:05:11.863Z,11.22
2023-04-30T03:07:40.083Z,11.19
2023-04-30T03:10:09.155Z,11.16
2023-04-30T03:12:37.142Z,11.11
2023-04-30T03:15:05.752Z,11.07
2023-04-30T03:17:33.883Z,11.02
2023-04-30T03:20:01.972Z,10.98
2023-04-30T03:22:30.751Z,10.93
2023-04-30T03:24:58.713Z,10.89
2023-04-30T03:27:26.648Z,10.85
2023-04-30T03:29:54.961Z,10.80
2023-04-30T03:32:23.942Z,10.77
2023-04-30T03:34:52.110Z,10.73
2023-04-30T03:37:20.123Z,10.68
2023-04-30T03:39:48.052Z,10.60
2023-04-30T03:42:16.999Z,10.52
2023-04-30T03:44:45.024Z,10.41
2023-04-30T03:47:12.976Z,10.30
2023-04-30T03:49:41.403Z,10.18
2023-04-30T03:52:09.430Z,10.07
2023-04-30T03:54:37.728Z,9.98
2023-04-30T03:57:10.792Z,9.87
2023-04-30T03:59:38.733Z,9.78
2023-04-30T04:02:57.343Z,9.70
2023-04-30T04:05:26.560Z,9.59
2023-04-30T04:07:55.102Z,9.54
2023-04-30T04:10:23.499Z,9.48
2023-04-30T04:12:51.462Z,9.44
2023-04-30T04:15:19.580Z,9.41
2023-04-30T04:17:47.592Z,9.38
2023-04-30T04:20:16.850Z,9.35
2023-04-30T04:22:45.420Z,9.34
2023-04-30T04:25:39.423Z,9.39
2023-04-30T04:28:07.963Z,9.52
2023-04-30T04:34:38.989Z,9.63
2023-04-30T04:37:07.179Z,9.65
2023-04-30T04:39:36.719Z,9.71
2023-04-30T04:42:05.172Z,9.75
2023-04-30T04:44:33.476Z,9.81
2023-04-30T04:47:03.550Z,9.87
2023-04-30T04:49:32.162Z,9.94
2023-04-30T04:52:00.138Z,9.98
2023-04-30T04:54:28.506Z,10.01
2023-04-30T04:56:56.700Z,10.05
2023-04-30T04:59:26.927Z,10.07
2023-04-30T05:01:56.626Z,10.05
2023-04-30T05:04:24.897Z,10.00
2023-04-30T05:06:54.464Z,9.93
2023-04-30T05:09:22.648Z,9.88
2023-04-30T05:11:51.052Z,9.85
2023-04-30T05:14:18.958Z,9.82
2023-04-30T05:16:47.116Z,9.80
2023-04-30T05:19:15.192Z,9.81
2023-04-30T05:21:43.342Z,9.83
2023-04-30T05:24:17.967Z,9.86
2023-04-30T05:26:46.263Z,9.91
2023-04-30T05:29:14.320Z,9.95
2023-04-30T05:31:42.421Z,10.02
2023-04-30T05:34:10.453Z,10.09
2023-04-30T05:36:38.389Z,10.13
2023-04-30T05:39:06.428Z,10.14
2023-04-30T05:41:34.371Z,10.16
2023-04-30T05:44:02.944Z,10.17
2023-04-30T05:46:31.181Z,10.18
2023-04-30T05:48:59.112Z,10.19
2023-04-30T05:51:28.035Z,10.20
2023-04-30T05:53:57.547Z,10.21
2023-04-30T05:56:26.592Z,10.19
2023-04-30T05:58:54.563Z,10.17
2023-04-30T06:01:23.911Z,10.12
2023-04-30T06:03:52.398Z,10.04
2023-04-30T06:06:21.180Z,9.97
2023-04-30T06:08:49.171Z,9.91
2023-04-30T06:11:17.196Z,9.85
2023-04-30T06:13:47.833Z,9.84
2023-04-30T06:16:16.353Z,9.82
2023-04-30T06:18:44.724Z,9.82
2023-04-30T06:21:12.750Z,9.91
2023-04-30T06:23:40.757Z,10.26
2023-04-30T06:26:08.761Z,10.96
2023-04-30T06:28:36.691Z,11.75
2023-04-30T06:31:04.791Z,12.56
2023-04-30T06:33:32.758Z,13.36
2023-04-30T06:36:00.680Z,14.09
2023-04-30T06:38:29.174Z,14.50
2023-04-30T06:40:57.233Z,14.83
2023-04-30T06:43:25.272Z,15.17
2023-04-30T06:45:53.156Z,15.51
2023-04-30T06:48:21.069Z,15.86
2023-04-30T06:50:49.103Z,16.26
2023-04-30T06:53:17.020Z,16.68
2023-04-30T06:55:46.850Z,17.16
2023-04-30T06:58:15.798Z,17.49
2023-04-30T07:00:43.830Z,17.93
2023-04-30T07:03:11.907Z,17.96
2023-04-30T07:05:40.080Z,17.89
2023-04-30T07:08:08.010Z,17.74
2023-04-30T07:10:36.262Z,17.57
2023-04-30T07:13:04.293Z,17.42
2023-04-30T07:15:32.356Z,17.37
2023-04-30T07:18:00.476Z,17.18
2023-04-30T07:20:28.549Z,16.86
2023-04-30T07:22:56.981Z,16.86
2023-04-30T07:25:24.923Z,17.10
2023-04-30T07:27:56.476Z,17.38
2023-04-30T07:30:25.480Z,17.68
2023-04-30T07:32:53.451Z,17.87
2023-04-30T07:35:21.442Z,18.03
2023-04-30T07:37:49.482Z,17.60
2023-04-30T07:40:25.401Z,16.90
2023-04-30T07:43:03.364Z,16.35
2023-04-30T07:45:31.987Z,16.61
2023-04-30T07:48:00.028Z,17.04
2023-04-30T07:50:29.904Z,17.30
2023-04-30T07:52:58.025Z,17.42
2023-04-30T07:55:26.155Z,17.53
2023-04-30T07:57:54.135Z,17.77
2023-04-30T08:00:22.239Z,18.07
2023-04-30T08:02:50.882Z,18.13
2023-04-30T08:05:19.191Z,17.76
2023-04-30T08:07:47.238Z,17.40
2023-04-30T08:10:15.795Z,17.37
2023-04-30T08:12:44.944Z,17.41
2023-04-30T08:15:12.844Z,17.33
2023-04-30T08:17:40.994Z,17.20
2023-04-30T08:20:09.590Z,17.26
2023-04-30T08:22:37.672Z,17.38
2023-04-30T08:25:07.006Z,17.33
2023-04-30T08:27:34.937Z,17.05
2023-04-30T08:30:09.914Z,16.68
2023-04-30T08:32:46.946Z,16.40
2023-04-30T08:35:21.435Z,16.17
2023-04-30T08:37:50.300Z,16.08
2023-04-30T08:40:19.279Z,16.14
2023-04-30T08:43:00.391Z,16.09
2023-04-30T08:45:28.578Z,16.15
2023-04-30T08:47:59.840Z,16.25
2023-04-30T08:50:29.410Z,16.27
2023-04-30T08:53:01.823Z,16.32
2023-04-30T08:55:30.169Z,16.34
2023-04-30T08:57:58.225Z,16.36
2023-04-30T09:00:28.659Z,16.34
2023-04-30T09:02:56.811Z,16.26
2023-04-30T09:05:24.933Z,16.20
2023-04-30T09:08:02.995Z,16.16
2023-04-30T09:10:36.268Z,16.13
2023-04-30T09:13:09.382Z,16.12
2023-04-30T09:15:41.616Z,16.16
2023-04-30T09:18:14.685Z,16.27
2023-04-30T09:21:01.924Z,16.24
2023-04-30T09:23:30.903Z,16.18
2023-04-30T09:25:58.754Z,16.08
2023-04-30T09:28:29.152Z,15.90
2023-04-30T09:30:58.178Z,15.83
2023-04-30T09:33:26.175Z,15.76
2023-04-30T09:35:54.224Z,15.69
2023-04-30T09:38:33.211Z,15.72
2023-04-30T09:41:02.148Z,15.72
2023-04-30T09:43:31.006Z,15.74
2023-04-30T09:46:00.725Z,15.70
2023-04-30T09:48:29.171Z,15.59
2023-04-30T09:50:57.738Z,15.56
2023-04-30T09:53:26.789Z,15.67
2023-04-30T09:55:59.205Z,15.68
2023-04-30T09:58:29.637Z,15.60
2023-04-30T10:01:01.134Z,15.63
2023-04-30T10:03:31.619Z,15.69
2023-04-30T10:06:01.086Z,15.77
2023-04-30T10:08:47.744Z,15.79
2023-04-30T10:11:23.698Z,15.87
2023-04-30T10:13:53.663Z,15.86
2023-04-30T10:16:28.674Z,15.91
2023-04-30T10:19:00.953Z,15.92
2023-04-30T10:21:30.002Z,15.93
2023-04-30T10:23:59.282Z,15.84
2023-04-30T10:26:29.710Z,15.84
2023-04-30T10:29:01.462Z,15.94
2023-04-30T10:31:30.825Z,15.97
2023-04-30T10:34:05.015Z,16.03
2023-04-30T10:36:38.915Z,16.05
2023-04-30T10:39:07.500Z,16.01
2023-04-30T10:41:35.709Z,15.93
2023-04-30T10:44:05.591Z,15.94
2023-04-30T10:46:37.011Z,15.96
2023-04-30T10:49:05.500Z,16.00
2023-04-30T10:51:58.666Z,16.08
2023-04-30T10:54:36.967Z,16.16
2023-04-30T10:57:17.920Z,16.17
